UTTT Airport Information

Runway Information
Runway 08L Length 13123 ft width 197 ft
Elevation 1368 ft Threshold 820 ft Heading 84
Runway 26R Length 13123 ft Width 197 ft
Elevation 1414 ft Threshold 820 ft Heading 264
Runway 08R Length 12812 ft width 148 ft
Elevation 1368 ft Threshold 650 ft Heading 81
Runway 26L Length 12812 ft Width 148 ft
Elevation 1411 ft Threshold 680 ft Heading 261
Airport Frequencies
Type APP Name TASHKENT A Frequency 125.2 MHZ
Type ATIS Name ATIS Frequency 126.8 MHZ
Type CLD Name TASHKENT D Frequency 129.4 MHZ
Type GCA Name TASHKENT K Frequency 119.4 MHZ
Type GND Name TASHKENT G Frequency 121.7 MHZ
Type TWR Name TASHKENT T Frequency 120.4 MHZ
Airport Navaids
Type NDB Name Tashkent Frequency 285 KHZ
Type NDB Name Tashkent Frequency 285 KHZ
Type VOR-DME Name Tashkent Frequency 113200 KHZ
Type NDB Name Tashkent Frequency 340 KHZ
Airport Weather Information & NOTAM
ADDS - METARS form results

(1846 UTC 20 October 2019)
Data provider http://aviationweather.gov/metar/data/
 
METAR text: UTTT 201830Z 05006KT 4000 FU NSC 15/03 Q1019 R08R/CLRD70 NOSIG
Conditions at: UTTT (TASKENT/YUZNI , UZ) observed 1830 UTC 20 October 2019
Temperature: 15.0°C (59°F)
Dewpoint: 3.0°C (37°F) [RH = 44%]
Pressure (altimeter): 30.09 inches Hg (1019.0 mb)
Winds: from the NE (50 degrees) at 7 MPH (6 knots; 3.1 m/s)
Visibility: 2.49 miles (4.01 km)
Ceiling: at least 12,000 feet AGL
Clouds: sky clear below 12,000 feet AGL
Weather: FU  (smoke)

METAR text: UTTT 201800Z 04006KT 4000 FU NSC 16/02 Q1019 R08R/CLRD70 NOSIG
Conditions at: UTTT (TASKENT/YUZNI , UZ) observed 1800 UTC 20 October 2019
Temperature: 16.0°C (61°F)
Dewpoint: 2.0°C (36°F) [RH = 39%]
Pressure (altimeter): 30.09 inches Hg (1019.0 mb)
Winds: from the NE (40 degrees) at 7 MPH (6 knots; 3.1 m/s)
Visibility: 2.49 miles (4.01 km)
Ceiling: at least 12,000 feet AGL
Clouds: sky clear below 12,000 feet AGL
Weather: FU  (smoke)

Forecast for: UTTT (TASKENT/YUZNI , UZ)
Text: TAF UTTT 201700Z 2018/2118 04012KT 7000 NSC
Forecast period: 1800 UTC 20 October 2019 to 1800 UTC 21 October 2019
Forecast type: FROM: standard forecast or significant change
Winds: from the NE (40 degrees) at 14 MPH (12 knots; 6.2 m/s)
Visibility: 4 miles (7 km)
Ceiling: unknown
Clouds: missing
Weather: no significant weather forecast for this period
Text: TEMPO 2018/2024 VRB02KT 3000 BR FU
Forecast period: 1800 UTC 20 October 2019 to 0000 UTC 21 October 2019
Forecast type: TEMPORARY: The following changes expected for less than half the time period
Winds: variable direction winds at 2 MPH (2 knots; 1.0 m/s)
Visibility: 1.86 miles (2.99 km)
Ceiling: unknown
Clouds: missing
Weather: BR FU  (mist, smoke)